»·PEaware :: DAL1781 KEGE-KSLC

DAL1781 :: KEGE-KSLC

FLIGHT INFORMATION

Flight Status: Arrived
Operator:
Delta Air Lines
More flights by this operator :: More flights under this callsign
Pilot: Patricio R. (14780)
Aircraft: BOEING 737-200
(B732)
More flights by this aircraft type
Origin: KEGE Eagle Co Regl
United States
Destination: KSLC Salt Lake City Intl
United States
More flights between these airports :: More routes between these airports
Route: EKR2 EKR SPANE7
File this flight plan on PilotEdge
Remarks: PBN / A1B2 DOF / 180504 REG / N275SB EET / KZLC0017 OPR / DAL RMK / TCAS SIMBRIEF
Altitude:
(Current/Filed)
28,000ft
Speed:
(Current/Filed)
441kts
Departed: 04-May-18 01:29 PM
Arrived: 04-May-18 02:20 PM
Distance/Time
Traveled:
242nm/0:51
Distance/Time
To Go:
Arrived

Flight Plot

Page will automatically refresh every two minutes.

Flight plan parsing failed; only flown route is shown


Map Options




Map Legend


Flown Route
Filed Route
Departure Airport
Arrival Airport
Navaid (VOR, NDB)
Fix

Horizontal Profiles

Position Reports

Time Latitude Longitude Heading Altitude Ground
Speed
04-May-18 13:17 39.640855 -106.913074 171 6555ft 0kts
04-May-18 13:18 39.640855 -106.913074 171 6555ft 0kts
04-May-18 13:19 39.640855 -106.913074 171 6555ft 0kts
04-May-18 13:20 39.640855 -106.913074 171 6555ft 0kts
04-May-18 13:21 39.640855 -106.913074 171 6555ft 0kts
04-May-18 13:22 39.640852 -106.913073 171 6555ft 0kts
04-May-18 13:23 39.641271 -106.913182 142 6555ft 2kts
04-May-18 13:24 39.641359 -106.913490 81 6555ft 0kts
04-May-18 13:25 39.641359 -106.913490 81 6555ft 0kts
04-May-18 13:26 39.641886 -106.910947 357 6555ft 10kts
04-May-18 13:27 39.642823 -106.906045 82 6555ft 22kts
04-May-18 13:28 39.643723 -106.901803 355 6555ft 7kts
04-May-18 13:29 39.644096 -106.905015 262 6555ft 65kts
04-May-18 13:30 39.631378 -106.957822 225 8158ft 189kts
04-May-18 13:31 39.603162 -107.016187 287 10570ft 220kts
04-May-18 13:32 39.659389 -107.053367 344 13111ft 252kts
04-May-18 13:33 39.727178 -107.084033 337 15598ft 276kts
04-May-18 13:34 39.799175 -107.126434 324 17857ft 298kts
04-May-18 13:35 39.832494 -107.228149 291 19816ft 323kts
04-May-18 13:36 39.875598 -107.331557 297 21819ft 334kts
04-May-18 13:37 39.915976 -107.444114 293 23533ft 355kts
04-May-18 13:38 39.953249 -107.559206 293 25024ft 369kts
04-May-18 13:39 39.992243 -107.683364 291 25804ft 396kts
04-May-18 13:40 40.032432 -107.813440 288 27550ft 388kts
04-May-18 13:41 40.072305 -107.942977 289 28386ft 390kts
04-May-18 13:42 40.076623 -108.083263 267 28376ft 394kts
04-May-18 13:43 40.078817 -108.226864 272 28373ft 400kts
04-May-18 13:44 40.084205 -108.372587 272 28372ft 404kts
04-May-18 13:45 40.089395 -108.515852 272 28344ft 408kts
04-May-18 13:46 40.094313 -108.655981 271 28347ft 410kts
04-May-18 13:47 40.098556 -108.801438 271 28348ft 412kts
04-May-18 13:48 40.103483 -108.937335 272 28346ft 413kts
04-May-18 13:49 40.114024 -109.086661 278 28339ft 416kts
04-May-18 13:50 40.122052 -109.238498 276 28350ft 422kts
04-May-18 13:51 40.127772 -109.392485 276 28348ft 427kts
04-May-18 13:52 40.132929 -109.547127 276 28348ft 430kts
04-May-18 13:53 40.137457 -109.698680 274 28354ft 430kts
04-May-18 13:54 40.141733 -109.853447 275 28346ft 429kts
04-May-18 13:54 40.145418 -109.980413 275 28349ft 429kts
04-May-18 13:55 40.149752 -110.136158 274 28348ft 429kts
04-May-18 13:56 40.147362 -110.291970 272 28374ft 429kts
04-May-18 13:57 40.145027 -110.444643 272 28337ft 391kts
04-May-18 13:58 40.142885 -110.578147 272 26795ft 363kts
04-May-18 13:59 40.140453 -110.703224 271 24804ft 353kts
04-May-18 14:00 40.137884 -110.829093 270 22783ft 344kts
04-May-18 14:01 40.135408 -110.951523 271 20892ft 334kts
04-May-18 14:02 40.132932 -111.070325 271 19025ft 325kts
04-May-18 14:03 40.130390 -111.186158 271 17200ft 315kts
04-May-18 14:04 40.127837 -111.298372 271 16046ft 301kts
04-May-18 14:05 40.125336 -111.405191 271 16055ft 305kts
04-May-18 14:06 40.122940 -111.508888 269 16016ft 316kts
04-May-18 14:07 40.150945 -111.611331 297 15555ft 297kts
04-May-18 14:08 40.186644 -111.704591 295 13977ft 288kts
04-May-18 14:09 40.221064 -111.796534 295 13989ft 281kts
04-May-18 14:10 40.268379 -111.875025 321 13576ft 274kts
04-May-18 14:11 40.334377 -111.921188 352 11953ft 279kts
04-May-18 14:12 40.411038 -111.931002 354 11001ft 278kts
04-May-18 14:13 40.486269 -111.939853 354 10004ft 270kts
04-May-18 14:14 40.557293 -111.948003 354 8572ft 242kts
04-May-18 14:15 40.623483 -111.955642 355 7231ft 234kts
04-May-18 14:16 40.681898 -111.962394 354 6065ft 185kts
04-May-18 14:17 40.726186 -111.967762 354 5096ft 144kts
04-May-18 14:18 40.765201 -111.972054 354 4431ft 140kts
04-May-18 14:19 40.793853 -111.975491 339 4205ft 14kts
04-May-18 14:20 40.794325 -111.977595 174 4205ft 13kts
04-May-18 14:21 40.789798 -111.977070 174 4205ft 17kts
04-May-18 14:22 40.788840 -111.977999 254 4205ft 0kts
04-May-18 14:23 40.788840 -111.977999 254 4205ft 0kts
04-May-18 14:24 40.788840 -111.977999 254 4205ft 0kts

Navigation Log

Ident Type
Flight plan parsing failed, navigation log unavailable